createdAt,value
2022-10-30T00:01:04.963Z,12.90
2022-10-30T00:03:32.088Z,12.90
2022-10-30T00:05:59.280Z,12.80
2022-10-30T00:08:26.516Z,12.80
2022-10-30T00:10:54.310Z,12.80
2022-10-30T00:13:21.919Z,12.80
2022-10-30T00:15:53.539Z,12.80
2022-10-30T00:18:21.077Z,12.70
2022-10-30T00:20:49.010Z,12.70
2022-10-30T00:23:16.364Z,12.70
2022-10-30T00:25:43.613Z,12.70
2022-10-30T00:28:10.729Z,12.70
2022-10-30T00:30:37.976Z,12.60
2022-10-30T00:33:05.631Z,12.60
2022-10-30T00:35:33.949Z,12.60
2022-10-30T00:38:02.775Z,12.60
2022-10-30T00:40:29.939Z,12.50
2022-10-30T00:42:57.102Z,12.50
2022-10-30T00:45:24.790Z,12.50
2022-10-30T00:47:55.846Z,12.50
2022-10-30T00:50:33.315Z,12.50
2022-10-30T00:53:09.957Z,12.40
2022-10-30T00:55:43.176Z,12.40
2022-10-30T00:58:14.702Z,12.40
2022-10-30T01:00:45.892Z,12.40
2022-10-30T01:03:13.405Z,12.40
2022-10-30T01:05:42.917Z,12.40
2022-10-30T01:08:10.273Z,12.40
2022-10-30T01:10:38.358Z,12.40
2022-10-30T01:13:06.957Z,12.30
2022-10-30T01:15:42.145Z,12.30
2022-10-30T01:18:31.432Z,12.30
2022-10-30T01:21:13.107Z,12.30
2022-10-30T01:24:01.016Z,12.20
2022-10-30T01:26:34.326Z,12.20
2022-10-30T01:29:14.429Z,12.20
2022-10-30T01:32:00.950Z,12.20
2022-10-30T01:34:54.633Z,12.10
2022-10-30T01:37:52.925Z,12.10
2022-10-30T01:40:21.338Z,12.10
2022-10-30T01:42:50.067Z,12.10
2022-10-30T01:45:54.568Z,12.10
2022-10-30T01:48:40.157Z,12.10
2022-10-30T01:51:15.659Z,12.10
2022-10-30T01:53:57.737Z,12.10
2022-10-30T01:56:46.891Z,12.10
2022-10-30T01:59:19.922Z,12.00
2022-10-30T02:01:48.085Z,12.00
2022-10-30T02:04:15.421Z,12.00
2022-10-30T02:06:42.727Z,12.00
2022-10-30T02:09:10.907Z,12.00
2022-10-30T02:11:47.928Z,12.00
2022-10-30T02:14:24.752Z,12.00
2022-10-30T02:16:54.723Z,12.00
2022-10-30T02:19:21.875Z,12.00
2022-10-30T02:21:50.048Z,11.90
2022-10-30T02:24:17.448Z,12.00
2022-10-30T02:26:44.518Z,12.00
2022-10-30T02:29:11.722Z,11.90
2022-10-30T02:31:39.034Z,11.90
2022-10-30T02:34:06.485Z,11.90
2022-10-30T02:36:33.818Z,11.90
2022-10-30T02:39:01.077Z,11.90
2022-10-30T02:41:28.149Z,11.90
2022-10-30T02:43:55.520Z,11.90
2022-10-30T02:46:23.339Z,11.80
2022-10-30T02:48:50.661Z,11.80
2022-10-30T02:51:18.195Z,11.80
2022-10-30T02:53:47.506Z,11.80
2022-10-30T02:56:15.427Z,11.80
2022-10-30T02:58:43.871Z,11.80
2022-10-30T03:01:14.689Z,11.70
2022-10-30T03:03:42.942Z,11.70
2022-10-30T03:06:15.615Z,11.70
2022-10-30T03:08:43.974Z,11.70
2022-10-30T03:11:16.590Z,11.70
2022-10-30T03:13:45.694Z,11.70
2022-10-30T03:16:18.844Z,11.70
2022-10-30T03:18:46.396Z,11.70
2022-10-30T03:21:16.538Z,11.60
2022-10-30T03:23:45.246Z,11.60
2022-10-30T03:26:12.512Z,11.60
2022-10-30T03:28:50.577Z,11.60
2022-10-30T03:31:19.104Z,11.60
2022-10-30T03:33:47.867Z,11.50
2022-10-30T03:36:15.508Z,11.50
2022-10-30T03:38:43.123Z,11.50
2022-10-30T03:41:13.446Z,11.50
2022-10-30T03:43:40.563Z,11.50
2022-10-30T03:46:10.616Z,11.50
2022-10-30T03:48:38.823Z,11.50
2022-10-30T03:51:06.141Z,11.50
2022-10-30T03:53:34.725Z,11.40
2022-10-30T03:56:04.210Z,11.40
2022-10-30T03:58:46.178Z,11.40
2022-10-30T04:01:15.436Z,11.40
2022-10-30T04:03:47.055Z,11.40
2022-10-30T04:06:16.363Z,11.40
2022-10-30T04:08:44.331Z,11.40
2022-10-30T04:11:11.772Z,11.40
2022-10-30T04:13:39.604Z,11.40
2022-10-30T04:16:08.183Z,11.40
2022-10-30T04:18:35.333Z,11.30
2022-10-30T04:21:02.634Z,11.30
2022-10-30T04:23:29.869Z,11.30
2022-10-30T04:25:57.162Z,11.30
2022-10-30T04:28:24.304Z,11.30
2022-10-30T04:30:51.427Z,11.30
2022-10-30T04:33:19.817Z,11.30
2022-10-30T04:35:49.199Z,11.30
2022-10-30T04:38:19.764Z,11.30
2022-10-30T04:40:48.100Z,11.30
2022-10-30T04:43:16.111Z,11.30
2022-10-30T04:45:47.414Z,11.30
2022-10-30T04:48:17.118Z,11.20
2022-10-30T04:50:45.486Z,11.30
2022-10-30T04:53:19.945Z,11.30
2022-10-30T04:55:54.465Z,11.30
2022-10-30T04:58:22.073Z,11.30
2022-10-30T05:01:00.343Z,11.30
2022-10-30T05:03:30.533Z,11.30
2022-10-30T05:06:04.555Z,11.20
2022-10-30T05:08:31.812Z,11.20
2022-10-30T05:11:05.406Z,11.20
2022-10-30T05:13:32.891Z,11.30
2022-10-30T05:15:59.904Z,11.20
2022-10-30T05:18:27.113Z,11.20
2022-10-30T05:20:54.185Z,11.20
2022-10-30T05:23:22.996Z,11.20
2022-10-30T05:25:50.244Z,11.20
2022-10-30T05:28:17.399Z,11.20
2022-10-30T05:30:53.793Z,11.20
2022-10-30T05:33:39.166Z,11.20
2022-10-30T05:36:06.749Z,11.10
2022-10-30T05:38:34.033Z,11.10
2022-10-30T05:41:01.674Z,11.10
2022-10-30T05:43:29.038Z,11.10
2022-10-30T05:45:56.112Z,11.10
2022-10-30T05:48:23.441Z,11.10
2022-10-30T05:50:50.834Z,11.10
2022-10-30T05:53:29.620Z,11.10
2022-10-30T05:55:58.678Z,11.10
2022-10-30T05:58:29.318Z,11.10
2022-10-30T06:00:58.689Z,11.10
2022-10-30T06:03:46.034Z,11.10
2022-10-30T06:06:13.470Z,11.10
2022-10-30T06:08:40.577Z,11.10
2022-10-30T06:11:25.381Z,11.10
2022-10-30T06:13:55.208Z,11.10
2022-10-30T06:16:33.382Z,11.10
2022-10-30T06:19:20.825Z,11.10
2022-10-30T06:21:50.743Z,11.10
2022-10-30T06:24:25.525Z,11.10
2022-10-30T06:27:06.299Z,11.10
2022-10-30T06:29:33.384Z,11.10
2022-10-30T06:32:03.830Z,11.10
2022-10-30T06:34:33.735Z,11.10
2022-10-30T06:37:00.879Z,11.10
2022-10-30T06:39:28.213Z,11.10
2022-10-30T06:42:17.988Z,11.10
2022-10-30T06:44:54.353Z,11.20
2022-10-30T06:47:21.587Z,11.20
2022-10-30T06:49:48.651Z,11.20
2022-10-30T06:52:17.199Z,11.20
2022-10-30T06:54:44.496Z,11.20
2022-10-30T06:57:31.161Z,11.30
2022-10-30T07:00:13.258Z,11.30
2022-10-30T07:03:15.754Z,11.30
2022-10-30T07:05:43.273Z,11.30
2022-10-30T07:08:10.894Z,11.30
2022-10-30T07:10:37.989Z,11.30
2022-10-30T07:13:23.721Z,11.30
2022-10-30T07:16:14.093Z,11.30
2022-10-30T07:18:43.699Z,11.30
2022-10-30T07:21:35.988Z,11.30
2022-10-30T07:24:06.248Z,11.40
2022-10-30T07:26:38.249Z,11.40
2022-10-30T07:29:24.329Z,11.40
2022-10-30T07:32:13.555Z,11.40
2022-10-30T07:34:51.998Z,11.40
2022-10-30T07:37:35.638Z,11.40
2022-10-30T07:40:13.150Z,11.40
2022-10-30T07:43:01.492Z,11.50
2022-10-30T07:45:46.786Z,11.50
2022-10-30T07:48:34.292Z,11.60
2022-10-30T07:51:08.302Z,11.60
2022-10-30T07:53:35.554Z,11.70
2022-10-30T07:56:04.243Z,11.70
2022-10-30T07:59:09.691Z,11.70
2022-10-30T08:02:00.888Z,11.70
2022-10-30T08:04:35.345Z,11.70
2022-10-30T08:07:19.846Z,11.70
2022-10-30T08:09:47.866Z,11.70
2022-10-30T08:12:16.380Z,11.70
2022-10-30T08:14:43.539Z,11.70
2022-10-30T08:17:11.249Z,11.70
2022-10-30T08:19:39.437Z,11.70
2022-10-30T08:22:09.040Z,11.70
2022-10-30T08:24:36.801Z,11.70
2022-10-30T08:27:04.845Z,11.60
2022-10-30T08:29:32.321Z,11.60
2022-10-30T08:31:59.601Z,11.60
2022-10-30T08:34:45.095Z,11.70
2022-10-30T08:37:12.877Z,11.70
2022-10-30T08:39:39.970Z,11.70
2022-10-30T08:42:27.253Z,11.70
2022-10-30T08:44:56.691Z,11.70
2022-10-30T08:48:04.142Z,11.70
2022-10-30T08:50:35.921Z,11.70
2022-10-30T08:53:05.262Z,11.70
2022-10-30T08:55:35.198Z,11.70
2022-10-30T08:58:04.878Z,11.70
2022-10-30T09:00:32.063Z,11.70
2022-10-30T09:03:10.883Z,11.70
2022-10-30T09:05:59.759Z,11.80
2022-10-30T09:08:30.338Z,11.70
2022-10-30T09:11:26.589Z,11.70
2022-10-30T09:13:53.884Z,11.70
2022-10-30T09:16:21.511Z,11.70
2022-10-30T09:18:48.746Z,11.70
2022-10-30T09:21:16.633Z,11.70
2022-10-30T09:23:46.706Z,11.80
2022-10-30T09:26:32.757Z,11.80
2022-10-30T09:29:19.005Z,11.80
2022-10-30T09:32:10.409Z,11.90
2022-10-30T09:35:05.057Z,11.90
2022-10-30T09:37:38.628Z,11.90
2022-10-30T09:40:38.901Z,11.90
2022-10-30T09:43:21.653Z,12.00
2022-10-30T09:46:12.037Z,12.00
2022-10-30T09:49:06.153Z,12.10
2022-10-30T09:51:56.484Z,12.10
2022-10-30T09:54:54.382Z,12.10
2022-10-30T09:57:25.430Z,12.20
2022-10-30T10:00:10.932Z,12.20
2022-10-30T10:02:58.770Z,12.20
2022-10-30T10:05:54.235Z,12.30
2022-10-30T10:08:50.100Z,12.30
2022-10-30T10:11:46.135Z,12.30
2022-10-30T10:14:23.252Z,12.40
2022-10-30T10:16:57.219Z,12.40
2022-10-30T10:19:40.559Z,12.50
2022-10-30T10:22:26.778Z,12.50
2022-10-30T10:24:55.362Z,12.60
2022-10-30T10:27:37.672Z,12.60
2022-10-30T10:30:12.602Z,12.70
2022-10-30T10:33:17.706Z,12.70
2022-10-30T10:36:05.208Z,12.70
2022-10-30T10:39:06.635Z,12.70
2022-10-30T10:41:55.477Z,12.70
2022-10-30T10:44:25.810Z,12.80
2022-10-30T10:47:07.394Z,12.80
2022-10-30T10:50:00.985Z,12.80
2022-10-30T10:52:37.784Z,12.90
2022-10-30T10:55:10.613Z,12.90
2022-10-30T10:57:40.845Z,12.90
2022-10-30T11:00:28.274Z,12.90
2022-10-30T11:03:12.117Z,12.90
2022-10-30T11:05:47.670Z,13.00
2022-10-30T11:08:23.277Z,12.90
2022-10-30T11:10:59.503Z,13.00
2022-10-30T11:13:36.750Z,13.00
2022-10-30T11:16:24.314Z,13.00
2022-10-30T11:19:04.099Z,13.00
2022-10-30T11:21:36.357Z,13.00
2022-10-30T11:24:03.608Z,13.10
2022-10-30T11:26:33.512Z,13.10
2022-10-30T11:29:14.102Z,13.10
2022-10-30T11:31:44.245Z,13.10
2022-10-30T11:34:23.436Z,13.20
2022-10-30T11:36:55.021Z,13.20
2022-10-30T11:39:24.846Z,13.20
2022-10-30T11:42:14.789Z,13.20
2022-10-30T11:44:49.491Z,13.10
2022-10-30T11:47:25.517Z,13.10
2022-10-30T11:49:56.443Z,13.10
2022-10-30T11:52:26.476Z,13.10
2022-10-30T11:54:58.186Z,13.10
2022-10-30T11:57:31.619Z,13.10
2022-10-30T12:00:04.605Z,13.10
2022-10-30T12:02:43.132Z,13.10
2022-10-30T12:05:38.037Z,13.10
2022-10-30T12:08:08.999Z,13.10
2022-10-30T12:10:51.559Z,13.10
2022-10-30T12:13:21.903Z,13.20
2022-10-30T12:16:09.028Z,13.20
2022-10-30T12:18:36.960Z,13.20
2022-10-30T12:21:04.490Z,13.20
2022-10-30T12:23:32.570Z,13.30
2022-10-30T12:26:02.661Z,13.40
2022-10-30T12:28:33.186Z,13.40
2022-10-30T12:31:10.192Z,13.40
2022-10-30T12:33:40.188Z,13.50
2022-10-30T12:36:13.751Z,13.60
2022-10-30T12:39:03.832Z,13.70
2022-10-30T12:41:45.538Z,13.80
2022-10-30T12:44:28.084Z,13.90
2022-10-30T12:46:57.234Z,14.00
2022-10-30T12:49:36.159Z,14.00
2022-10-30T12:52:12.570Z,14.00
2022-10-30T12:54:50.764Z,14.10
2022-10-30T12:57:22.047Z,14.10
2022-10-30T13:00:14.425Z,14.10
2022-10-30T13:02:50.736Z,14.00
2022-10-30T13:05:31.795Z,14.00
2022-10-30T13:08:02.097Z,14.00
2022-10-30T13:10:40.447Z,13.90
2022-10-30T13:13:56.090Z,13.90
2022-10-30T13:16:31.292Z,13.90
2022-10-30T13:19:01.257Z,13.80
2022-10-30T13:24:18.282Z,13.80
2022-10-30T13:26:57.883Z,13.80
2022-10-30T13:29:25.092Z,13.70
2022-10-30T13:32:23.036Z,13.60
2022-10-30T13:35:00.860Z,13.60
2022-10-30T13:37:46.857Z,13.60
2022-10-30T13:40:23.883Z,13.60
2022-10-30T13:42:57.145Z,13.70
2022-10-30T13:45:55.402Z,13.70
2022-10-30T13:48:45.852Z,13.60
2022-10-30T13:51:19.041Z,13.70
2022-10-30T13:53:49.775Z,13.60
2022-10-30T13:56:19.484Z,13.60
2022-10-30T13:59:01.593Z,13.60
2022-10-30T14:01:55.420Z,13.60
2022-10-30T14:04:48.114Z,13.60
2022-10-30T14:07:37.023Z,13.50
2022-10-30T14:10:21.136Z,13.50
2022-10-30T14:13:05.337Z,13.50
2022-10-30T14:15:35.203Z,13.50
2022-10-30T14:18:31.491Z,13.50
2022-10-30T14:21:19.967Z,13.50
2022-10-30T14:23:48.200Z,13.50
2022-10-30T14:26:19.689Z,13.60
2022-10-30T14:28:56.542Z,13.70
2022-10-30T14:31:35.680Z,13.80
2022-10-30T14:34:03.271Z,13.80
2022-10-30T14:36:39.659Z,13.80
2022-10-30T14:39:10.638Z,13.80
2022-10-30T14:41:58.382Z,13.80
2022-10-30T14:45:03.312Z,13.80
2022-10-30T14:47:51.969Z,13.80
2022-10-30T14:50:23.106Z,13.80
2022-10-30T14:53:02.656Z,13.80
2022-10-30T14:55:35.522Z,13.90
2022-10-30T14:58:02.824Z,14.00
2022-10-30T15:00:36.344Z,14.00
2022-10-30T15:03:13.667Z,14.00
2022-10-30T15:05:53.052Z,14.00
2022-10-30T15:08:39.057Z,14.00
2022-10-30T15:11:17.642Z,13.90
2022-10-30T15:13:49.901Z,13.90
2022-10-30T15:16:19.980Z,13.90
2022-10-30T15:19:16.670Z,13.90
2022-10-30T15:21:46.842Z,13.80
2022-10-30T15:24:18.141Z,13.80
2022-10-30T15:26:50.263Z,13.70
2022-10-30T15:29:33.517Z,13.60
2022-10-30T15:32:03.325Z,13.50
2022-10-30T15:34:33.203Z,13.50
2022-10-30T15:37:10.538Z,13.40
2022-10-30T15:39:37.701Z,13.40
2022-10-30T15:42:05.253Z,13.30
2022-10-30T15:44:35.275Z,13.30
2022-10-30T15:47:04.956Z,13.20
2022-10-30T15:49:41.852Z,13.20
2022-10-30T15:52:30.937Z,13.20
2022-10-30T15:55:06.585Z,13.20
2022-10-30T15:58:08.153Z,13.20
2022-10-30T16:00:37.762Z,13.20
2022-10-30T16:03:17.374Z,13.20
2022-10-30T16:05:45.185Z,13.20
2022-10-30T16:08:20.996Z,13.20
2022-10-30T16:10:50.199Z,13.20
2022-10-30T16:13:19.642Z,13.10
2022-10-30T16:15:47.776Z,13.10
2022-10-30T16:18:28.397Z,13.10
2022-10-30T16:21:04.643Z,13.10
2022-10-30T16:23:41.625Z,13.10
2022-10-30T16:26:30.031Z,13.10
2022-10-30T16:28:59.096Z,13.10
2022-10-30T16:31:34.611Z,13.10
2022-10-30T16:34:03.707Z,13.10
2022-10-30T16:36:31.475Z,13.10
2022-10-30T16:38:58.929Z,13.10
2022-10-30T16:41:28.437Z,13.10
2022-10-30T16:44:31.903Z,13.00
2022-10-30T16:47:10.685Z,13.00
2022-10-30T16:49:38.287Z,12.90
2022-10-30T16:52:14.902Z,12.90
2022-10-30T16:54:49.138Z,12.90
2022-10-30T16:57:29.063Z,12.80
2022-10-30T16:59:57.545Z,12.80
2022-10-30T17:02:28.164Z,12.80
2022-10-30T17:05:12.596Z,12.80
2022-10-30T17:07:39.785Z,12.70
2022-10-30T17:10:29.685Z,12.70
2022-10-30T17:13:36.512Z,12.70
2022-10-30T17:16:25.580Z,12.70
2022-10-30T17:18:54.961Z,12.70
2022-10-30T17:21:27.573Z,12.70
2022-10-30T17:23:58.026Z,12.70
2022-10-30T17:26:28.176Z,12.70
2022-10-30T17:28:55.463Z,12.70
2022-10-30T17:31:43.461Z,12.70
2022-10-30T17:34:17.984Z,12.70
2022-10-30T17:36:49.353Z,12.70
2022-10-30T17:39:16.625Z,12.70
2022-10-30T17:41:44.222Z,12.60
2022-10-30T17:44:19.958Z,12.60
2022-10-30T17:46:47.110Z,12.60
2022-10-30T17:49:32.694Z,12.60
2022-10-30T17:52:00.238Z,12.60
2022-10-30T17:54:28.018Z,12.50
2022-10-30T17:56:55.564Z,12.50
2022-10-30T17:59:22.635Z,12.50
2022-10-30T18:01:50.116Z,12.50
2022-10-30T18:04:20.778Z,12.50
2022-10-30T18:06:50.018Z,12.40
2022-10-30T18:09:17.402Z,12.40
2022-10-30T18:11:44.666Z,12.40
2022-10-30T18:14:12.566Z,12.40
2022-10-30T18:16:39.687Z,12.40
2022-10-30T18:19:10.780Z,12.40
2022-10-30T18:21:39.235Z,12.40
2022-10-30T18:24:13.241Z,12.40
2022-10-30T18:26:41.248Z,12.40
2022-10-30T18:29:09.517Z,12.40
2022-10-30T18:31:37.485Z,12.40
2022-10-30T18:34:05.193Z,12.50
2022-10-30T18:36:32.531Z,12.50
2022-10-30T18:38:59.697Z,12.50
2022-10-30T18:41:36.888Z,12.50
2022-10-30T18:44:04.627Z,12.50
2022-10-30T18:46:34.185Z,12.50
2022-10-30T18:49:01.418Z,12.40
2022-10-30T18:51:29.218Z,12.40
2022-10-30T18:53:57.299Z,12.40
2022-10-30T18:56:27.118Z,12.40
2022-10-30T18:59:00.599Z,12.50
2022-10-30T19:01:32.473Z,12.50
2022-10-30T19:04:04.454Z,12.50
2022-10-30T19:06:34.445Z,12.50
2022-10-30T19:09:02.065Z,12.60
2022-10-30T19:11:31.407Z,12.60
2022-10-30T19:13:59.661Z,12.60
2022-10-30T19:16:27.123Z,12.60
2022-10-30T19:18:54.337Z,12.60
2022-10-30T19:21:25.645Z,12.60
2022-10-30T19:23:54.361Z,12.60
2022-10-30T19:26:21.561Z,12.60
2022-10-30T19:28:48.765Z,12.60
2022-10-30T19:31:18.554Z,12.60
2022-10-30T19:33:48.161Z,12.60
2022-10-30T19:36:36.551Z,12.60
2022-10-30T19:39:17.001Z,12.60
2022-10-30T19:41:44.362Z,12.60
2022-10-30T19:44:11.519Z,12.60
2022-10-30T19:46:38.661Z,12.60
2022-10-30T19:49:16.736Z,12.60
2022-10-30T19:51:44.060Z,12.60
2022-10-30T19:54:11.352Z,12.60
2022-10-30T19:56:38.586Z,12.60
2022-10-30T19:59:15.497Z,12.60
2022-10-30T20:01:44.739Z,12.60
2022-10-30T20:04:12.590Z,12.60
2022-10-30T20:06:39.788Z,12.60
2022-10-30T20:09:10.960Z,12.50
2022-10-30T20:11:38.246Z,12.50
2022-10-30T20:14:05.421Z,12.50
2022-10-30T20:16:32.719Z,12.50
2022-10-30T20:18:59.833Z,12.50
2022-10-30T20:21:28.002Z,12.50
2022-10-30T20:23:55.333Z,12.50
2022-10-30T20:26:26.689Z,12.40
2022-10-30T20:28:54.604Z,12.40
2022-10-30T20:31:21.760Z,12.40
2022-10-30T20:33:48.912Z,12.40
2022-10-30T20:36:16.478Z,12.30
2022-10-30T20:38:44.034Z,12.30
2022-10-30T20:41:23.547Z,12.30
2022-10-30T20:43:51.151Z,12.30
2022-10-30T20:46:19.020Z,12.20
2022-10-30T20:48:46.502Z,12.20
2022-10-30T20:51:14.432Z,12.20
2022-10-30T20:53:41.523Z,12.20
2022-10-30T20:56:08.639Z,12.10
2022-10-30T20:58:36.204Z,12.10
2022-10-30T21:01:03.454Z,12.10
2022-10-30T21:03:30.723Z,12.00
2022-10-30T21:05:59.860Z,12.00
2022-10-30T21:08:29.320Z,12.00
2022-10-30T21:11:01.204Z,12.00
2022-10-30T21:13:28.828Z,11.90
2022-10-30T21:16:01.330Z,11.90
2022-10-30T21:18:28.609Z,11.90
2022-10-30T21:21:01.153Z,11.90
2022-10-30T21:23:28.418Z,11.90
2022-10-30T21:26:05.833Z,11.80
2022-10-30T21:28:33.617Z,11.80
2022-10-30T21:31:06.544Z,11.80
2022-10-30T21:33:36.269Z,11.80
2022-10-30T21:36:13.693Z,11.80
2022-10-30T21:38:47.054Z,11.70
2022-10-30T21:41:16.791Z,11.70
2022-10-30T21:43:48.741Z,11.70
2022-10-30T21:46:15.937Z,11.70
2022-10-30T21:48:43.045Z,11.70
2022-10-30T21:51:20.259Z,11.70
2022-10-30T21:53:48.339Z,11.70
2022-10-30T21:56:27.691Z,11.70
2022-10-30T21:58:56.655Z,11.70
2022-10-30T22:01:26.947Z,11.70
2022-10-30T22:03:54.664Z,11.70
2022-10-30T22:06:23.119Z,11.70
2022-10-30T22:08:52.644Z,11.60
2022-10-30T22:11:22.343Z,11.60
2022-10-30T22:13:57.537Z,11.60
2022-10-30T22:16:26.299Z,11.60
2022-10-30T22:18:53.438Z,11.60
2022-10-30T22:21:20.709Z,11.60
2022-10-30T22:23:47.898Z,11.60
2022-10-30T22:26:21.796Z,11.60
2022-10-30T22:28:56.352Z,11.60
2022-10-30T22:31:24.952Z,11.60
2022-10-30T22:33:52.654Z,11.50
2022-10-30T22:36:23.527Z,11.50
2022-10-30T22:39:06.002Z,11.50
2022-10-30T22:41:37.478Z,11.50
2022-10-30T22:44:11.346Z,11.50
2022-10-30T22:46:38.904Z,11.50
2022-10-30T22:49:06.792Z,11.50
2022-10-30T22:51:36.963Z,11.50
2022-10-30T22:54:06.007Z,11.50
2022-10-30T22:56:35.257Z,11.50
2022-10-30T22:59:05.131Z,11.50
2022-10-30T23:01:34.614Z,11.50
2022-10-30T23:04:03.328Z,11.50
2022-10-30T23:06:31.887Z,11.50
2022-10-30T23:09:00.352Z,11.50
2022-10-30T23:11:28.673Z,11.50
2022-10-30T23:13:57.060Z,11.50
2022-10-30T23:16:26.522Z,11.50
2022-10-30T23:18:59.291Z,11.50
2022-10-30T23:21:28.949Z,11.50
2022-10-30T23:23:57.029Z,11.50
2022-10-30T23:26:30.531Z,11.50
2022-10-30T23:28:59.100Z,11.50
2022-10-30T23:31:28.869Z,11.40
2022-10-30T23:33:59.809Z,11.40
2022-10-30T23:36:27.885Z,11.40
2022-10-30T23:39:00.127Z,11.40
2022-10-30T23:41:30.063Z,11.50
2022-10-30T23:43:59.497Z,11.40
2022-10-30T23:46:27.265Z,11.40
2022-10-30T23:48:54.751Z,11.40
2022-10-30T23:51:22.390Z,11.40
2022-10-30T23:53:50.055Z,11.40
2022-10-30T23:56:17.855Z,11.40
2022-10-30T23:58:46.321Z,11.40
